createdAt,value
2023-05-16T00:02:39.680Z,6.10
2023-05-16T00:05:32.862Z,6.15
2023-05-16T00:08:25.491Z,5.75
2023-05-16T00:11:19.357Z,5.40
2023-05-16T00:14:12.727Z,5.65
2023-05-16T00:17:12.140Z,6.00
2023-05-16T00:20:10.033Z,5.18
2023-05-16T00:23:03.859Z,5.03
2023-05-16T00:25:56.421Z,5.20
2023-05-16T00:28:49.947Z,6.22
2023-05-16T00:31:43.053Z,5.43
2023-05-16T00:34:36.874Z,5.15
2023-05-16T00:37:30.903Z,5.38
2023-05-16T00:40:23.997Z,5.25
2023-05-16T00:43:17.662Z,5.75
2023-05-16T00:46:11.093Z,4.97
2023-05-16T00:49:05.115Z,4.65
2023-05-16T00:51:59.966Z,5.25
2023-05-16T00:54:54.147Z,5.07
2023-05-16T00:57:48.023Z,5.28
2023-05-16T01:00:41.416Z,5.07
2023-05-16T01:03:35.536Z,4.28
2023-05-16T01:06:28.908Z,4.78
2023-05-16T01:09:21.909Z,5.03
2023-05-16T01:12:24.963Z,4.13
2023-05-16T01:15:23.374Z,4.43
2023-05-16T01:18:25.145Z,4.80
2023-05-16T01:21:32.541Z,4.85
2023-05-16T01:24:34.660Z,4.05
2023-05-16T01:27:30.304Z,4.13
2023-05-16T01:30:23.701Z,4.55
2023-05-16T01:33:16.960Z,5.47
2023-05-16T01:36:15.396Z,4.72
2023-05-16T01:39:16.103Z,4.45
2023-05-16T01:42:12.210Z,4.40
2023-05-16T01:45:14.073Z,4.57
2023-05-16T01:48:10.528Z,3.55
2023-05-16T01:51:05.222Z,3.90
2023-05-16T01:54:06.250Z,4.00
2023-05-16T01:57:02.106Z,3.65
2023-05-16T01:59:54.637Z,3.63
2023-05-16T02:02:49.073Z,3.92
2023-05-16T02:05:41.728Z,3.90
2023-05-16T02:08:35.014Z,3.97
2023-05-16T02:11:27.554Z,4.63
2023-05-16T02:14:20.955Z,4.28
2023-05-16T02:17:13.946Z,4.18
2023-05-16T02:20:10.286Z,4.10
2023-05-16T02:23:04.099Z,3.65
2023-05-16T02:25:56.735Z,4.90
2023-05-16T02:28:49.949Z,4.07
2023-05-16T02:31:43.284Z,4.22
2023-05-16T02:34:36.853Z,3.90
2023-05-16T02:37:31.139Z,4.65
2023-05-16T02:40:23.916Z,4.28
2023-05-16T02:43:17.214Z,4.80
2023-05-16T02:46:22.272Z,4.90
2023-05-16T02:49:16.056Z,4.30
2023-05-16T02:52:09.026Z,4.88
2023-05-16T02:55:20.989Z,4.70
2023-05-16T02:58:16.825Z,4.70
2023-05-16T03:01:10.434Z,4.95
2023-05-16T03:04:03.704Z,4.63
2023-05-16T03:06:57.348Z,5.07
2023-05-16T03:09:50.646Z,5.07
2023-05-16T03:12:46.112Z,4.78
2023-05-16T03:15:38.897Z,5.13
2023-05-16T03:18:31.964Z,5.00
2023-05-16T03:21:25.016Z,4.95
2023-05-16T03:24:18.133Z,4.90
2023-05-16T03:27:11.428Z,4.68
2023-05-16T03:30:07.645Z,4.68
2023-05-16T03:33:00.801Z,4.72
2023-05-16T03:35:54.326Z,5.13
2023-05-16T03:38:47.982Z,5.40
2023-05-16T03:41:40.734Z,4.93
2023-05-16T03:44:33.975Z,4.93
2023-05-16T03:47:31.283Z,5.72
2023-05-16T03:50:25.525Z,5.65
2023-05-16T03:53:19.106Z,5.88
2023-05-16T03:56:12.255Z,5.60
2023-05-16T03:59:06.406Z,4.93
2023-05-16T04:01:59.953Z,4.90
2023-05-16T04:04:55.318Z,5.47
2023-05-16T04:07:48.772Z,5.47
2023-05-16T04:10:42.107Z,5.18
2023-05-16T04:13:35.268Z,5.57
2023-05-16T04:16:29.958Z,5.35
2023-05-16T04:19:23.132Z,5.57
2023-05-16T04:22:17.557Z,5.90
2023-05-16T04:25:12.409Z,5.15
2023-05-16T04:28:06.941Z,5.22
2023-05-16T04:31:00.022Z,5.43
2023-05-16T04:33:54.012Z,5.00
2023-05-16T04:36:47.153Z,4.63
2023-05-16T04:39:42.575Z,4.97
2023-05-16T04:42:35.835Z,4.68
2023-05-16T04:45:29.271Z,4.72
2023-05-16T04:48:22.901Z,4.57
2023-05-16T04:51:16.215Z,5.07
2023-05-16T04:54:10.752Z,4.68
2023-05-16T04:57:05.799Z,4.55
2023-05-16T04:59:59.066Z,3.88
2023-05-16T05:02:52.357Z,3.65
2023-05-16T05:05:46.347Z,3.78
2023-05-16T05:08:40.115Z,4.00
2023-05-16T05:11:33.215Z,3.85
2023-05-16T05:14:27.459Z,4.22
2023-05-16T05:17:21.319Z,3.67
2023-05-16T05:20:15.078Z,3.65
2023-05-16T05:23:08.177Z,3.03
2023-05-16T05:26:02.228Z,3.25
2023-05-16T05:29:04.510Z,3.80
2023-05-16T05:32:00.172Z,3.20
2023-05-16T05:34:53.528Z,3.15
2023-05-16T05:37:46.940Z,3.10
2023-05-16T05:40:40.252Z,3.00
2023-05-16T05:43:33.969Z,2.70
2023-05-16T05:46:27.362Z,3.22
2023-05-16T05:49:23.173Z,2.90
2023-05-16T05:52:16.311Z,3.45
2023-05-16T05:55:09.862Z,2.70
2023-05-16T05:58:04.413Z,3.28
2023-05-16T06:01:00.198Z,2.72
2023-05-16T06:03:52.881Z,3.13
2023-05-16T06:06:47.530Z,2.85
2023-05-16T06:09:41.032Z,2.45
2023-05-16T06:12:34.400Z,2.67
2023-05-16T06:15:28.462Z,2.75
2023-05-16T06:18:22.286Z,2.33
2023-05-16T06:21:15.191Z,2.70
2023-05-16T06:24:09.597Z,2.42
2023-05-16T06:27:02.770Z,1.95
2023-05-16T06:29:55.841Z,2.67
2023-05-16T06:32:49.077Z,2.35
2023-05-16T06:35:42.029Z,2.15
2023-05-16T06:38:35.044Z,2.10
2023-05-16T06:41:29.315Z,2.08
2023-05-16T06:44:22.714Z,2.25
2023-05-16T06:47:16.134Z,2.13
2023-05-16T06:50:10.856Z,1.83
2023-05-16T06:53:05.046Z,1.50
2023-05-16T06:55:57.839Z,1.95
2023-05-16T06:58:52.366Z,1.63
2023-05-16T07:01:45.367Z,1.88
2023-05-16T07:04:39.468Z,2.10
2023-05-16T07:07:32.854Z,2.15
2023-05-16T07:10:27.406Z,1.58
2023-05-16T07:13:21.660Z,1.77
2023-05-16T07:16:16.814Z,1.45
2023-05-16T07:19:10.071Z,1.65
2023-05-16T07:22:03.392Z,1.65
2023-05-16T07:24:57.159Z,1.75
2023-05-16T07:27:50.071Z,1.55
2023-05-16T07:30:43.390Z,1.65
2023-05-16T07:33:37.698Z,1.35
2023-05-16T07:36:31.332Z,1.40
2023-05-16T07:39:24.352Z,1.40
2023-05-16T07:42:16.996Z,1.52
2023-05-16T07:45:10.348Z,1.00
2023-05-16T07:48:03.266Z,1.55
2023-05-16T07:50:57.956Z,1.08
2023-05-16T07:53:51.747Z,1.33
2023-05-16T07:56:45.111Z,1.15
2023-05-16T07:59:38.249Z,1.05
2023-05-16T08:02:31.841Z,0.88
2023-05-16T08:05:25.355Z,0.80
2023-05-16T08:08:20.905Z,0.85
2023-05-16T08:11:14.032Z,0.93
2023-05-16T08:14:08.019Z,1.10
2023-05-16T08:17:01.337Z,0.88
2023-05-16T08:19:54.578Z,1.00
2023-05-16T08:22:48.384Z,0.90
2023-05-16T08:25:42.738Z,0.90
2023-05-16T08:28:36.173Z,1.00
2023-05-16T08:31:29.182Z,0.93
2023-05-16T08:34:24.715Z,0.90
2023-05-16T08:37:18.306Z,0.77
2023-05-16T08:40:12.220Z,0.80
2023-05-16T08:43:06.714Z,0.88
2023-05-16T08:46:01.040Z,0.85
2023-05-16T08:48:55.147Z,1.00
2023-05-16T08:51:49.258Z,0.90
2023-05-16T08:54:42.784Z,0.80
2023-05-16T08:57:36.416Z,0.60
2023-05-16T09:00:31.645Z,1.00
2023-05-16T09:03:28.070Z,0.57
2023-05-16T09:06:22.019Z,0.95
2023-05-16T09:09:15.373Z,0.60
2023-05-16T09:12:09.682Z,1.00
2023-05-16T09:15:04.052Z,0.70
2023-05-16T09:18:02.236Z,0.50
2023-05-16T09:20:55.420Z,0.80
2023-05-16T09:23:50.803Z,0.77
2023-05-16T09:26:46.056Z,0.95
2023-05-16T09:29:41.366Z,0.77
2023-05-16T09:32:34.045Z,0.55
2023-05-16T09:35:43.232Z,0.75
2023-05-16T09:38:39.252Z,0.95
2023-05-16T09:41:35.147Z,1.20
2023-05-16T09:44:28.330Z,0.77
2023-05-16T09:47:22.294Z,0.95
2023-05-16T09:50:17.319Z,0.68
2023-05-16T09:53:15.319Z,0.77
2023-05-16T09:56:11.343Z,0.90
2023-05-16T09:59:11.951Z,0.93
2023-05-16T10:02:07.175Z,0.80
2023-05-16T10:05:00.865Z,0.73
2023-05-16T10:07:56.104Z,0.80
2023-05-16T10:10:53.097Z,1.02
2023-05-16T10:13:52.926Z,1.02
2023-05-16T10:16:49.582Z,0.80
2023-05-16T10:19:44.046Z,1.02
2023-05-16T10:22:40.432Z,0.85
2023-05-16T10:25:37.580Z,1.13
2023-05-16T10:28:33.418Z,0.93
2023-05-16T10:31:26.558Z,1.05
2023-05-16T10:34:19.718Z,1.35
2023-05-16T10:37:13.306Z,1.50
2023-05-16T10:40:08.773Z,0.77
2023-05-16T10:43:03.933Z,0.85
2023-05-16T10:46:03.788Z,0.93
2023-05-16T10:48:58.604Z,0.95
2023-05-16T10:52:07.447Z,1.13
2023-05-16T10:55:04.081Z,1.02
2023-05-16T10:57:58.401Z,1.00
2023-05-16T11:00:51.291Z,1.10
2023-05-16T11:04:05.178Z,1.13
2023-05-16T11:06:59.935Z,1.17
2023-05-16T11:10:08.717Z,1.23
2023-05-16T11:13:08.343Z,0.80
2023-05-16T11:16:28.758Z,1.15
2023-05-16T11:19:35.427Z,0.77
2023-05-16T11:22:30.515Z,0.82
2023-05-16T11:25:39.195Z,1.33
2023-05-16T11:28:33.520Z,0.95
2023-05-16T11:31:26.552Z,1.10
2023-05-16T11:34:19.536Z,1.00
2023-05-16T11:37:15.026Z,1.38
2023-05-16T11:40:11.353Z,1.23
2023-05-16T11:43:07.047Z,1.10
2023-05-16T11:46:01.563Z,1.00
2023-05-16T11:48:54.551Z,0.88
2023-05-16T11:51:47.539Z,0.80
2023-05-16T11:54:42.360Z,1.05
2023-05-16T11:57:35.328Z,1.10
2023-05-16T12:00:28.788Z,1.10
2023-05-16T12:03:24.000Z,1.05
2023-05-16T12:06:17.190Z,0.98
2023-05-16T12:09:16.132Z,1.10
2023-05-16T12:12:13.209Z,1.13
2023-05-16T12:15:08.036Z,0.90
2023-05-16T12:18:02.285Z,0.85
2023-05-16T12:20:55.478Z,0.80
2023-05-16T12:23:48.342Z,1.10
2023-05-16T12:26:43.459Z,0.88
2023-05-16T12:29:37.608Z,0.90
2023-05-16T12:32:31.077Z,0.60
2023-05-16T12:35:24.439Z,0.80
2023-05-16T12:38:18.739Z,1.20
2023-05-16T12:41:12.536Z,0.63
2023-05-16T12:44:11.945Z,1.00
2023-05-16T12:47:13.623Z,0.93
2023-05-16T12:50:12.019Z,1.00
2023-05-16T12:53:05.119Z,0.80
2023-05-16T12:55:58.541Z,1.10
2023-05-16T12:58:52.456Z,0.93
2023-05-16T13:01:46.391Z,0.90
2023-05-16T13:04:41.464Z,0.93
2023-05-16T13:07:34.697Z,1.58
2023-05-16T13:10:28.743Z,1.17
2023-05-16T13:13:35.347Z,1.15
2023-05-16T13:16:29.308Z,1.00
2023-05-16T13:19:24.314Z,1.08
2023-05-16T13:22:18.829Z,0.90
2023-05-16T13:25:13.334Z,1.00
2023-05-16T13:28:06.792Z,0.90
2023-05-16T13:31:00.899Z,0.82
2023-05-16T13:33:54.365Z,1.48
2023-05-16T13:36:54.494Z,1.00
2023-05-16T13:39:49.868Z,1.02
2023-05-16T13:42:43.539Z,1.00
2023-05-16T13:45:37.483Z,0.82
2023-05-16T13:48:30.377Z,0.75
2023-05-16T13:51:23.442Z,1.02
2023-05-16T13:54:17.175Z,0.70
2023-05-16T13:57:11.641Z,0.85
2023-05-16T14:03:05.659Z,1.08
2023-05-16T14:05:58.528Z,1.08
2023-05-16T14:08:51.756Z,0.80
2023-05-16T14:11:45.689Z,0.75
2023-05-16T14:14:40.116Z,1.00
2023-05-16T14:17:33.528Z,0.40
2023-05-16T14:20:26.606Z,0.75
2023-05-16T14:23:19.760Z,0.70
2023-05-16T14:26:13.436Z,0.90
2023-05-16T14:29:06.272Z,0.93
2023-05-16T14:32:00.956Z,0.70
2023-05-16T14:34:54.290Z,0.77
2023-05-16T14:37:47.953Z,1.00
2023-05-16T14:40:41.386Z,0.80
2023-05-16T14:43:34.630Z,0.80
2023-05-16T14:46:28.008Z,1.40
2023-05-16T14:49:22.968Z,0.80
2023-05-16T14:52:17.810Z,0.80
2023-05-16T14:55:11.902Z,0.88
2023-05-16T14:58:06.259Z,0.60
2023-05-16T15:00:59.666Z,1.10
2023-05-16T15:03:55.926Z,0.90
2023-05-16T15:06:50.554Z,0.63
2023-05-16T15:09:43.508Z,0.82
2023-05-16T15:12:36.618Z,0.73
2023-05-16T15:15:29.735Z,0.90
2023-05-16T15:18:23.014Z,0.70
2023-05-16T15:21:17.002Z,0.90
2023-05-16T15:24:12.698Z,0.93
2023-05-16T15:27:06.824Z,0.90
2023-05-16T15:30:01.233Z,0.75
2023-05-16T15:32:54.500Z,0.75
2023-05-16T15:35:48.379Z,0.98
2023-05-16T15:38:44.308Z,0.77
2023-05-16T15:42:01.097Z,0.68
2023-05-16T15:44:52.673Z,0.98
2023-05-16T15:47:45.672Z,0.90
2023-05-16T15:50:38.855Z,0.75
2023-05-16T15:53:32.852Z,0.80
2023-05-16T15:56:27.231Z,0.88
2023-05-16T15:59:21.878Z,0.40
2023-05-16T16:02:18.675Z,1.02
2023-05-16T16:05:11.714Z,1.30
2023-05-16T16:08:10.422Z,0.82
2023-05-16T16:11:06.481Z,1.00
2023-05-16T16:13:59.841Z,0.93
2023-05-16T16:16:54.573Z,1.10
2023-05-16T16:19:48.317Z,0.90
2023-05-16T16:22:41.670Z,0.70
2023-05-16T16:25:35.017Z,0.80
2023-05-16T16:28:28.474Z,1.00
2023-05-16T16:31:21.950Z,0.70
2023-05-16T16:34:16.806Z,0.90
2023-05-16T16:37:11.584Z,1.00
2023-05-16T16:40:05.005Z,0.77
2023-05-16T16:42:59.050Z,0.90
2023-05-16T16:45:52.713Z,0.60
2023-05-16T16:48:45.692Z,1.10
2023-05-16T16:51:40.066Z,1.00
2023-05-16T16:54:33.679Z,0.98
2023-05-16T16:57:27.003Z,0.82
2023-05-16T17:00:21.033Z,0.73
2023-05-16T17:03:14.653Z,0.80
2023-05-16T17:06:08.062Z,0.75
2023-05-16T17:09:05.158Z,0.80
2023-05-16T17:12:04.508Z,1.08
2023-05-16T17:14:57.909Z,0.75
2023-05-16T17:17:51.864Z,0.88
2023-05-16T17:20:44.249Z,0.77
2023-05-16T17:23:37.997Z,0.77
2023-05-16T17:26:33.171Z,0.90
2023-05-16T17:29:27.187Z,0.80
2023-05-16T17:32:21.396Z,0.52
2023-05-16T17:35:14.446Z,1.15
2023-05-16T17:38:07.672Z,0.65
2023-05-16T17:41:00.725Z,0.50
2023-05-16T17:43:54.839Z,0.90
2023-05-16T17:46:47.739Z,1.10
2023-05-16T17:49:40.811Z,0.60
2023-05-16T17:52:34.018Z,0.82
2023-05-16T17:55:28.027Z,0.70
2023-05-16T17:58:21.720Z,0.70
2023-05-16T18:01:16.694Z,1.00
2023-05-16T18:04:10.590Z,0.82
2023-05-16T18:07:05.263Z,0.70
2023-05-16T18:09:59.025Z,1.08
2023-05-16T18:12:52.815Z,0.70
2023-05-16T18:15:46.300Z,0.90
2023-05-16T18:18:41.551Z,0.80
2023-05-16T18:21:35.425Z,0.65
2023-05-16T18:24:28.747Z,0.70
2023-05-16T18:27:21.904Z,0.90
2023-05-16T18:30:16.351Z,1.00
2023-05-16T18:33:10.287Z,0.98
2023-05-16T18:36:05.612Z,0.70
2023-05-16T18:38:58.471Z,0.90
2023-05-16T18:41:51.878Z,1.10
2023-05-16T18:44:45.078Z,0.80
2023-05-16T18:47:38.867Z,0.70
2023-05-16T18:50:32.992Z,0.75
2023-05-16T18:53:28.294Z,0.90
2023-05-16T18:56:22.569Z,0.80
2023-05-16T18:59:15.645Z,0.90
2023-05-16T19:02:08.959Z,0.90
2023-05-16T19:05:03.090Z,1.13
2023-05-16T19:07:59.465Z,1.10
2023-05-16T19:10:54.129Z,0.75
2023-05-16T19:13:47.704Z,0.90
2023-05-16T19:16:40.852Z,1.15
2023-05-16T19:19:34.011Z,0.73
2023-05-16T19:22:27.586Z,0.98
2023-05-16T19:25:21.127Z,1.10
2023-05-16T19:28:16.582Z,1.00
2023-05-16T19:31:10.630Z,0.82
2023-05-16T19:34:03.531Z,0.85
2023-05-16T19:36:56.967Z,1.10
2023-05-16T19:39:49.895Z,0.82
2023-05-16T19:42:43.472Z,0.93
2023-05-16T19:45:38.277Z,1.00
2023-05-16T19:48:31.803Z,0.98
2023-05-16T19:51:37.643Z,1.10
2023-05-16T19:54:34.612Z,0.95
2023-05-16T19:57:27.664Z,1.20
2023-05-16T20:00:21.047Z,1.00
2023-05-16T20:03:16.331Z,0.80
2023-05-16T20:06:09.798Z,0.90
2023-05-16T20:09:02.784Z,1.20
2023-05-16T20:11:57.392Z,1.20
2023-05-16T20:14:51.771Z,1.00
2023-05-16T20:17:45.120Z,0.90
2023-05-16T20:20:40.318Z,1.17
2023-05-16T20:23:35.058Z,0.90
2023-05-16T20:26:28.724Z,1.23
2023-05-16T20:29:21.491Z,1.05
2023-05-16T20:32:14.802Z,1.17
2023-05-16T20:35:10.160Z,1.05
2023-05-16T20:38:05.134Z,1.02
2023-05-16T20:40:58.852Z,1.20
2023-05-16T20:43:51.651Z,1.25
2023-05-16T20:46:44.660Z,1.25
2023-05-16T20:49:39.606Z,1.10
2023-05-16T20:52:35.863Z,1.10
2023-05-16T20:55:31.246Z,1.33
2023-05-16T20:58:24.713Z,1.05
2023-05-16T21:01:17.864Z,0.95
2023-05-16T21:04:10.632Z,1.40
2023-05-16T21:07:03.991Z,1.00
2023-05-16T21:09:58.094Z,1.00
2023-05-16T21:12:53.266Z,0.95
2023-05-16T21:15:47.040Z,1.00
2023-05-16T21:18:39.952Z,1.15
2023-05-16T21:21:33.095Z,0.93
2023-05-16T21:24:26.937Z,1.10
2023-05-16T21:27:20.096Z,0.85
2023-05-16T21:30:15.756Z,1.02
2023-05-16T21:33:08.591Z,1.00
2023-05-16T21:36:02.062Z,1.25
2023-05-16T21:38:54.892Z,1.00
2023-05-16T21:41:47.829Z,1.20
2023-05-16T21:44:40.896Z,1.20
2023-05-16T21:47:35.448Z,0.93
2023-05-16T21:50:28.835Z,1.35
2023-05-16T21:53:24.024Z,1.38
2023-05-16T21:56:17.811Z,1.05
2023-05-16T21:59:10.881Z,1.10
2023-05-16T22:02:04.005Z,1.35
2023-05-16T22:04:58.933Z,1.23
2023-05-16T22:07:55.444Z,1.10
2023-05-16T22:10:48.829Z,1.13
2023-05-16T22:13:42.236Z,1.10
2023-05-16T22:16:36.060Z,0.95
2023-05-16T22:19:29.609Z,1.30
2023-05-16T22:22:27.950Z,1.10
2023-05-16T22:25:21.399Z,0.98
2023-05-16T22:28:14.622Z,1.13
2023-05-16T22:31:07.902Z,1.30
2023-05-16T22:34:01.720Z,0.90
2023-05-16T22:36:55.107Z,0.98
2023-05-16T22:39:49.409Z,1.20
2023-05-16T22:42:43.194Z,1.00
2023-05-16T22:45:36.953Z,1.00
2023-05-16T22:48:30.264Z,1.20
2023-05-16T22:51:23.787Z,1.30
2023-05-16T22:54:17.163Z,1.52
2023-05-16T22:57:11.405Z,1.02
2023-05-16T23:00:05.624Z,1.10
2023-05-16T23:02:59.191Z,1.30
2023-05-16T23:05:52.806Z,1.40
2023-05-16T23:08:45.953Z,1.17
2023-05-16T23:11:39.338Z,1.20
2023-05-16T23:14:34.298Z,0.98
2023-05-16T23:17:28.172Z,1.38
2023-05-16T23:20:22.407Z,1.40
2023-05-16T23:23:15.843Z,1.33
2023-05-16T23:26:09.005Z,1.33
2023-05-16T23:29:02.413Z,1.27
2023-05-16T23:31:57.526Z,1.02
2023-05-16T23:34:51.169Z,1.00
2023-05-16T23:37:44.038Z,1.30
2023-05-16T23:40:37.035Z,1.25
2023-05-16T23:43:30.023Z,1.10
2023-05-16T23:46:23.112Z,1.00
2023-05-16T23:49:17.170Z,1.17
2023-05-16T23:52:10.312Z,1.20
2023-05-16T23:55:04.050Z,1.10
2023-05-16T23:57:57.276Z,1.02
